Time;durP1;ratioP1;P1;durP2;ratioP2;P2;SDS_P1;SDS_P2;PMS_P1;PMS_P2;Temp;Humidity;BMP_temperature;BMP_pressure;BME280_temperature;BME280_humidity;BME280_pressure;Samples;Min_cycle;Max_cycle;Signal;HPM_P1;HPM_P2
2024/01/21 00:01:03;;;;;;;7.90;4.47;;;-9.70;1.00;;;;;;5076287;28;20169;-82
2024/01/21 00:03:29;;;;;;;8.33;4.37;;;-9.70;99.90;;;;;;5076136;28;20200;-82
2024/01/21 00:05:54;;;;;;;9.70;4.50;;;-9.80;1.00;;;;;;5076023;28;20170;-81
2024/01/21 00:08:20;;;;;;;8.57;4.50;;;-9.90;1.00;;;;;;5075732;28;20250;-81
2024/01/21 00:10:46;;;;;;;9.80;4.40;;;-9.90;99.90;;;;;;5076943;28;20207;-81
2024/01/21 00:13:11;;;;;;;7.97;4.13;;;-9.80;99.90;;;;;;5076983;28;20649;-82
2024/01/21 00:15:37;;;;;;;10.73;4.90;;;-10.00;1.00;;;;;;5075858;28;20234;-81
2024/01/21 00:18:02;;;;;;;7.80;4.57;;;-9.90;99.90;;;;;;5075605;28;20258;-81
2024/01/21 00:20:30;;;;;;;7.60;4.10;;;-10.00;99.90;;;;;;5075608;28;20184;-81
2024/01/21 00:22:57;;;;;;;7.53;4.73;;;-10.00;26.20;;;;;;5075348;28;20208;-81
2024/01/21 00:25:23;;;;;;;6.47;4.60;;;-10.10;1.00;;;;;;5075692;28;20827;-81
2024/01/21 00:27:48;;;;;;;7.93;4.07;;;-10.30;1.00;;;;;;5075329;28;20438;-81
2024/01/21 00:30:14;;;;;;;8.67;4.17;;;-10.30;1.00;;;;;;5075653;28;20232;-82
2024/01/21 00:32:39;;;;;;;8.30;4.17;;;-10.20;99.90;;;;;;5077157;28;20183;-81
2024/01/21 00:35:05;;;;;;;8.13;4.63;;;-10.10;1.00;;;;;;5075827;28;20184;-82
2024/01/21 00:37:31;;;;;;;9.57;4.67;;;-10.00;1.00;;;;;;5077056;28;20173;-81
2024/01/21 00:39:56;;;;;;;8.07;4.57;;;-9.90;99.90;;;;;;5075209;28;20439;-81
2024/01/21 00:42:22;;;;;;;7.73;4.23;;;-10.00;1.00;;;;;;5075878;28;20254;-83
2024/01/21 00:44:48;;;;;;;8.23;3.93;;;-10.10;1.00;;;;;;5075904;28;20177;-81
2024/01/21 00:47:14;;;;;;;7.23;4.03;;;-10.20;1.00;;;;;;5076748;28;20675;-81
2024/01/21 00:49:40;;;;;;;6.83;3.10;;;-10.10;1.00;;;;;;5075364;28;20435;-81
2024/01/21 00:52:05;;;;;;;5.93;3.97;;;-10.10;1.00;;;;;;5076161;28;20183;-81
2024/01/21 00:54:32;;;;;;;6.17;3.73;;;-10.30;99.90;;;;;;5075300;28;20244;-81
2024/01/21 00:56:58;;;;;;;6.53;3.37;;;-10.40;1.00;;;;;;5075544;28;20177;-81
2024/01/21 00:59:23;;;;;;;5.30;2.83;;;-10.40;1.00;;;;;;5074515;28;20459;-81
2024/01/21 01:01:49;;;;;;;6.60;3.60;;;-10.50;99.90;;;;;;5076208;28;20204;-81
2024/01/21 01:04:15;;;;;;;6.23;3.43;;;-10.60;1.00;;;;;;5075152;28;20168;-81
2024/01/21 01:06:40;;;;;;;10.47;3.67;;;-10.70;1.00;;;;;;5075281;28;20176;-81
2024/01/21 01:09:06;;;;;;;5.53;3.30;;;-10.50;1.00;;;;;;5076874;28;20307;-81
2024/01/21 01:11:32;;;;;;;5.80;3.60;;;-10.50;1.00;;;;;;5076170;28;20179;-81
2024/01/21 01:13:57;;;;;;;8.73;3.47;;;-10.40;1.00;;;;;;5075144;28;20179;-81
2024/01/21 01:16:23;;;;;;;7.33;3.50;;;-10.30;1.00;;;;;;5076194;28;20186;-81
2024/01/21 01:18:49;;;;;;;6.80;3.70;;;-10.30;1.00;;;;;;5075055;28;20235;-81
2024/01/21 01:21:15;;;;;;;8.30;3.87;;;-10.20;1.00;;;;;;5076259;28;20173;-81
2024/01/21 01:23:40;;;;;;;5.73;3.20;;;-10.20;99.90;;;;;;5075864;28;20873;-81
2024/01/21 01:26:09;;;;;;;7.00;3.63;;;-10.10;99.90;;;;;;5075089;28;20184;-81
2024/01/21 01:28:34;;;;;;;5.40;3.40;;;-10.20;1.00;;;;;;5075357;28;20239;-80
2024/01/21 01:31:00;;;;;;;5.83;3.23;;;-10.20;99.90;;;;;;5076159;28;20423;-81
2024/01/21 01:33:25;;;;;;;5.03;3.47;;;-10.20;1.00;;;;;;5074851;28;20553;-81
2024/01/21 01:35:51;;;;;;;6.27;3.33;;;-10.20;86.50;;;;;;5075300;28;20652;-81
2024/01/21 01:38:16;;;;;;;6.20;3.50;;;-10.10;99.90;;;;;;5074376;28;20184;-82
2024/01/21 01:40:42;;;;;;;6.10;3.60;;;-10.00;1.00;;;;;;5073304;28;20546;-81
2024/01/21 01:43:08;;;;;;;5.50;3.37;;;-10.10;99.90;;;;;;5075871;28;20254;-81
2024/01/21 01:45:33;;;;;;;3.80;2.67;;;-10.20;1.00;;;;;;5075032;28;20181;-81
2024/01/21 01:47:59;;;;;;;5.27;3.20;;;-10.30;1.00;;;;;;5074715;28;20180;-81
2024/01/21 01:50:26;;;;;;;4.77;2.90;;;-10.40;1.00;;;;;;5075501;28;20226;-81
2024/01/21 01:52:52;;;;;;;5.80;3.53;;;-10.40;1.00;;;;;;5076082;28;20173;-81
2024/01/21 01:55:18;;;;;;;5.53;3.37;;;-10.40;99.90;;;;;;5074812;28;20484;-81
2024/01/21 01:57:46;;;;;;;4.93;3.30;;;-10.30;99.90;;;;;;5074807;28;20415;-81
2024/01/21 02:00:12;;;;;;;6.20;2.90;;;-10.10;1.00;;;;;;5073977;28;20220;-81
2024/01/21 02:02:41;;;;;;;5.03;3.13;;;-10.10;99.90;;;;;;5073570;28;20467;-81
2024/01/21 02:05:07;;;;;;;4.70;3.07;;;-10.00;37.30;;;;;;5073716;28;20410;-81
2024/01/21 02:07:33;;;;;;;4.13;2.53;;;-9.90;1.00;;;;;;5073842;28;20437;-81
2024/01/21 02:10:01;;;;;;;6.37;3.30;;;-9.80;1.00;;;;;;5073715;28;20874;-82
2024/01/21 02:12:27;;;;;;;5.63;3.97;;;-9.90;99.90;;;;;;5073245;28;20175;-81
2024/01/21 02:14:52;;;;;;;7.93;4.40;;;-10.10;1.00;;;;;;5073477;28;20429;-81
2024/01/21 02:17:18;;;;;;;6.93;3.63;;;-10.30;1.00;;;;;;5072787;28;20180;-81
2024/01/21 02:19:43;;;;;;;5.37;3.63;;;-10.30;1.00;;;;;;5073116;28;20219;-81
2024/01/21 02:22:09;;;;;;;5.67;3.70;;;-10.40;1.00;;;;;;5073954;28;20229;-81
2024/01/21 02:24:35;;;;;;;2.63;2.30;;;-10.20;1.00;;;;;;5074651;28;20178;-82
2024/01/21 02:27:00;;;;;;;2.53;2.00;;;-10.20;99.90;;;;;;5074366;28;20194;-81
2024/01/21 02:29:26;;;;;;;9.03;4.33;;;-10.30;1.00;;;;;;5073936;28;20253;-80
2024/01/21 02:31:54;;;;;;;7.23;3.90;;;-10.30;99.90;;;;;;5074123;28;20175;-81
2024/01/21 02:34:20;;;;;;;7.10;4.37;;;-10.30;1.00;;;;;;5074990;28;20229;-81
2024/01/21 02:36:47;;;;;;;7.10;3.40;;;-10.30;1.00;;;;;;5073338;28;20415;-81
2024/01/21 02:39:12;;;;;;;5.77;3.20;;;-10.50;99.90;;;;;;5074321;28;20203;-79
2024/01/21 02:41:38;;;;;;;6.33;3.40;;;-10.60;1.00;;;;;;5073951;28;20550;-81
2024/01/21 02:44:04;;;;;;;6.47;4.20;;;-10.70;99.90;;;;;;5074588;28;20175;-81
2024/01/21 02:46:29;;;;;;;6.97;3.80;;;-10.70;97.30;;;;;;5073305;28;20171;-81
2024/01/21 02:48:55;;;;;;;5.47;3.77;;;-10.70;1.00;;;;;;5072954;28;20193;-81
2024/01/21 02:51:20;;;;;;;4.97;3.37;;;-10.70;1.00;;;;;;5075843;28;20173;-82
2024/01/21 02:53:46;;;;;;;6.53;3.20;;;-10.60;99.90;;;;;;5076538;28;20699;-81
2024/01/21 02:56:25;;;;;;;5.17;3.43;;;-10.50;99.90;;;;;;5076666;28;20251;-82
2024/01/21 02:58:51;;;;;;;5.20;3.22;;;-10.40;94.90;;;;;;5038820;28;1069048;-81
2024/01/21 03:01:18;;;;;;;4.37;2.97;;;-10.40;99.90;;;;;;5078110;28;20191;-81
2024/01/21 03:03:44;;;;;;;5.43;2.77;;;-10.30;1.00;;;;;;5079049;28;20454;-81
2024/01/21 03:06:09;;;;;;;5.83;3.33;;;-10.20;99.90;;;;;;5077265;28;20407;-81
2024/01/21 03:08:35;;;;;;;5.47;3.20;;;-10.20;1.00;;;;;;5077604;28;20572;-81
2024/01/21 03:11:01;;;;;;;4.30;2.77;;;-10.20;99.90;;;;;;5076466;28;20271;-81
2024/01/21 03:13:26;;;;;;;4.90;3.37;;;-10.30;1.00;;;;;;5077129;28;20684;-81
2024/01/21 03:15:53;;;;;;;5.57;3.30;;;-10.20;99.90;;;;;;5078349;28;20180;-81
2024/01/21 03:18:18;;;;;;;5.13;3.00;;;-10.20;1.00;;;;;;5077504;28;20225;-82
2024/01/21 03:20:44;;;;;;;5.80;3.37;;;-10.10;1.00;;;;;;5076852;28;20415;-81
2024/01/21 03:23:10;;;;;;;5.20;2.93;;;-10.10;1.00;;;;;;5077960;28;20279;-81
2024/01/21 03:25:35;;;;;;;5.63;3.43;;;-10.10;1.00;;;;;;5077984;28;20204;-81
2024/01/21 03:28:01;;;;;;;5.33;2.97;;;-10.00;99.90;;;;;;5076832;28;20180;-81
2024/01/21 03:30:26;;;;;;;6.73;2.97;;;-9.90;1.00;;;;;;5077607;28;20179;-81
2024/01/21 03:32:52;;;;;;;7.97;2.87;;;-9.80;1.00;;;;;;5078547;28;20176;-81
2024/01/21 03:35:18;;;;;;;5.57;3.60;;;-9.80;59.30;;;;;;5076932;28;20179;-81
2024/01/21 03:37:43;;;;;;;4.33;2.93;;;-9.70;1.00;;;;;;5078181;28;20214;-81
2024/01/21 03:40:09;;;;;;;5.07;3.53;;;-9.70;27.00;;;;;;5076244;28;20189;-79
2024/01/21 03:42:35;;;;;;;6.97;3.53;;;-9.80;1.00;;;;;;5077378;28;20208;-81
2024/01/21 03:45:00;;;;;;;7.77;3.70;;;-9.90;1.00;;;;;;5076528;28;20173;-81
2024/01/21 03:47:26;;;;;;;4.37;3.00;;;-9.90;1.00;;;;;;5076448;28;20172;-81
2024/01/21 03:49:52;;;;;;;5.50;3.37;;;-9.90;1.00;;;;;;5075925;28;20197;-81
2024/01/21 03:52:17;;;;;;;4.40;3.00;;;-10.00;1.00;;;;;;5076046;28;20649;-81
2024/01/21 03:54:43;;;;;;;4.60;3.00;;;-10.10;99.90;;;;;;5077497;28;20173;-82
2024/01/21 03:57:09;;;;;;;5.47;3.10;;;-10.20;99.90;;;;;;5077492;28;20177;-81
2024/01/21 03:59:34;;;;;;;6.00;3.00;;;-10.20;1.00;;;;;;5076609;28;20213;-81
2024/01/21 04:02:00;;;;;;;5.57;2.77;;;-10.30;99.90;;;;;;5075038;28;20291;-81
2024/01/21 04:04:26;;;;;;;5.03;2.97;;;-10.20;99.90;;;;;;5077545;28;20173;-81
2024/01/21 04:06:52;;;;;;;4.87;3.20;;;-10.30;99.90;;;;;;5075550;28;20181;-81
2024/01/21 04:09:23;;;;;;;4.27;2.67;;;-10.20;99.90;;;;;;5076697;28;20435;-81
2024/01/21 04:11:49;;;;;;;4.50;2.40;;;-10.20;1.00;;;;;;5077194;28;20594;-80
2024/01/21 04:14:15;;;;;;;5.53;3.57;;;-10.20;99.90;;;;;;5077381;28;20419;-81
2024/01/21 04:16:40;;;;;;;5.50;3.10;;;-10.20;99.90;;;;;;5075977;28;20839;-81
2024/01/21 04:19:06;;;;;;;5.73;3.13;;;-10.20;38.60;;;;;;5076496;28;20254;-81
2024/01/21 04:21:32;;;;;;;5.93;3.30;;;-10.20;99.90;;;;;;5075868;28;20183;-81
2024/01/21 04:23:58;;;;;;;6.37;3.20;;;-10.10;1.00;;;;;;5077025;28;20173;-83
2024/01/21 04:26:24;;;;;;;5.37;3.10;;;-10.20;99.90;;;;;;5075341;28;20435;-81
2024/01/21 04:28:50;;;;;;;5.30;3.10;;;-10.20;99.90;;;;;;5075292;28;20431;-81
2024/01/21 04:31:16;;;;;;;5.77;3.03;;;-10.30;1.00;;;;;;5074912;28;20411;-81
2024/01/21 04:33:41;;;;;;;5.33;3.00;;;-10.30;99.90;;;;;;5075090;28;20280;-81
2024/01/21 04:36:08;;;;;;;5.73;2.97;;;-10.30;99.90;;;;;;5076731;28;20191;-81
2024/01/21 04:38:34;;;;;;;4.93;3.10;;;-10.20;18.30;;;;;;5076265;28;20196;-81
2024/01/21 04:41:00;;;;;;;5.57;2.90;;;-10.20;1.00;;;;;;5076237;28;20413;-81
2024/01/21 04:43:25;;;;;;;4.73;2.90;;;-10.30;1.00;;;;;;5075368;28;20254;-81
2024/01/21 04:45:51;;;;;;;6.57;3.37;;;-10.20;99.90;;;;;;5075344;28;20183;-81
2024/01/21 04:48:17;;;;;;;5.47;3.10;;;-10.30;1.00;;;;;;5074728;28;20173;-82
2024/01/21 04:50:42;;;;;;;5.93;3.27;;;-10.20;1.00;;;;;;5074682;28;20212;-81
2024/01/21 04:53:08;;;;;;;5.23;2.93;;;-10.20;1.00;;;;;;5075623;28;20177;-81
2024/01/21 04:55:33;;;;;;;3.30;2.27;;;-10.20;1.00;;;;;;5074987;28;20532;-81
2024/01/21 04:57:59;;;;;;;4.67;3.00;;;-10.10;1.00;;;;;;5076441;28;20187;-82
2024/01/21 05:00:24;;;;;;;5.53;3.00;;;-10.00;1.00;;;;;;5074981;28;20219;-81
2024/01/21 05:02:50;;;;;;;5.20;3.40;;;-9.90;99.90;;;;;;5076050;28;20234;-81
2024/01/21 05:05:15;;;;;;;7.63;3.20;;;-9.90;99.90;;;;;;5075884;28;20180;-81
2024/01/21 05:07:41;;;;;;;5.47;3.17;;;-9.70;1.00;;;;;;5074556;28;20200;-81
2024/01/21 05:10:07;;;;;;;4.53;3.00;;;-9.50;28.60;;;;;;5073869;28;20189;-78
2024/01/21 05:12:33;;;;;;;6.43;3.50;;;-9.40;10.20;;;;;;5075017;28;20177;-81
2024/01/21 05:14:58;;;;;;;7.53;3.70;;;-9.30;95.90;;;;;;5075039;28;20410;-81
2024/01/21 05:17:24;;;;;;;7.73;3.83;;;-9.20;99.90;;;;;;5075749;28;20229;-81
2024/01/21 05:19:50;;;;;;;6.23;3.07;;;-9.20;99.90;;;;;;5075335;28;20216;-82
2024/01/21 05:22:15;;;;;;;7.57;3.33;;;-9.20;92.10;;;;;;5074032;28;20211;-81
2024/01/21 05:24:41;;;;;;;5.40;3.27;;;-9.20;54.20;;;;;;5074002;28;20650;-82
2024/01/21 05:27:06;;;;;;;4.77;3.10;;;-9.10;15.30;;;;;;5075487;28;20196;-82
2024/01/21 05:29:32;;;;;;;6.63;3.77;;;-9.00;89.60;;;;;;5075223;28;20204;-81
2024/01/21 05:31:57;;;;;;;4.97;3.40;;;-9.00;77.60;;;;;;5074920;28;20177;-81
2024/01/21 05:34:23;;;;;;;8.90;4.00;;;-8.90;45.80;;;;;;5074262;28;20191;-82
2024/01/21 05:36:48;;;;;;;6.57;3.60;;;-8.90;8.80;;;;;;5074004;28;20181;-81
2024/01/21 05:39:14;;;;;;;6.70;3.63;;;-8.80;99.90;;;;;;5075539;28;20703;-81
2024/01/21 05:41:40;;;;;;;5.27;3.20;;;-8.80;99.90;;;;;;5073341;28;20172;-81
2024/01/21 05:44:05;;;;;;;6.07;4.07;;;-8.70;17.50;;;;;;5074350;28;20173;-81
2024/01/21 05:46:31;;;;;;;5.50;3.27;;;-8.80;1.00;;;;;;5074905;28;20645;-81
2024/01/21 05:48:57;;;;;;;6.43;3.47;;;-8.80;1.00;;;;;;5074122;28;20188;-81
2024/01/21 05:51:22;;;;;;;5.27;3.33;;;-8.80;1.00;;;;;;5074696;28;20191;-82
2024/01/21 05:53:48;;;;;;;6.80;3.57;;;-8.80;1.00;;;;;;5074139;28;20265;-81
2024/01/21 05:56:17;;;;;;;5.37;3.80;;;-8.70;5.30;;;;;;5074383;28;20176;-81
2024/01/21 05:58:43;;;;;;;7.47;3.60;;;-8.70;2.20;;;;;;5072958;28;20213;-81
2024/01/21 06:01:08;;;;;;;5.53;3.50;;;-8.70;34.50;;;;;;5072954;28;20472;-81
2024/01/21 06:03:34;;;;;;;6.70;3.80;;;-8.60;99.90;;;;;;5074334;28;20292;-81
2024/01/21 06:05:59;;;;;;;5.37;3.40;;;-8.50;99.90;;;;;;5074212;28;20196;-82
2024/01/21 06:08:27;;;;;;;7.33;3.90;;;-8.50;95.00;;;;;;5072864;28;20193;-82
2024/01/21 06:10:53;;;;;;;5.07;2.43;;;-8.50;92.10;;;;;;5073278;28;20192;-81
2024/01/21 06:13:18;;;;;;;5.93;3.73;;;-7.80;99.90;;;;;;5071290;28;20454;-78
2024/01/21 06:15:45;;;;;;;6.93;4.03;;;-6.20;99.90;;;;;;5071080;28;20188;-78
2024/01/21 06:18:11;;;;;;;6.73;3.73;;;-5.30;99.90;;;;;;5073316;28;20720;-78
2024/01/21 06:20:36;;;;;;;6.07;3.30;;;-4.90;99.90;;;;;;5070494;28;20422;-79
2024/01/21 06:23:02;;;;;;;4.87;3.20;;;-5.00;99.90;;;;;;5071659;28;20198;-79
2024/01/21 06:25:28;;;;;;;5.57;3.50;;;-5.60;1.00;;;;;;5073717;28;20171;-78
2024/01/21 06:27:53;;;;;;;6.53;3.23;;;-6.10;99.90;;;;;;5074628;28;20316;-81
2024/01/21 06:30:21;;;;;;;4.73;2.97;;;-6.60;1.00;;;;;;5074017;28;20216;-79
2024/01/21 06:32:46;;;;;;;5.43;3.43;;;-6.90;1.00;;;;;;5075120;28;20724;-80
2024/01/21 06:35:12;;;;;;;5.53;3.37;;;-7.10;89.20;;;;;;5074901;28;20456;-80
2024/01/21 06:37:38;;;;;;;5.57;3.50;;;-7.20;99.90;;;;;;5074418;28;20667;-80
2024/01/21 06:40:04;;;;;;;4.20;3.00;;;-7.30;99.90;;;;;;5074411;28;20215;-81
2024/01/21 06:42:30;;;;;;;4.63;3.00;;;-7.30;99.90;;;;;;5074109;28;20191;-80
2024/01/21 06:44:55;;;;;;;4.73;3.00;;;-7.30;99.90;;;;;;5075387;28;20446;-79
2024/01/21 06:47:21;;;;;;;4.70;2.83;;;-7.30;99.90;;;;;;5074933;28;20174;-79
2024/01/21 06:49:46;;;;;;;4.90;3.10;;;-7.30;99.90;;;;;;5075961;28;20678;-79
2024/01/21 06:52:12;;;;;;;4.60;2.80;;;-7.30;99.90;;;;;;5075128;28;20553;-79
2024/01/21 06:54:38;;;;;;;4.93;2.87;;;-7.30;99.90;;;;;;5076003;28;20561;-79
2024/01/21 06:57:04;;;;;;;5.17;2.80;;;-7.20;99.90;;;;;;5075704;28;20173;-80
2024/01/21 06:59:29;;;;;;;4.63;2.90;;;-7.20;99.90;;;;;;5075660;28;20456;-79
2024/01/21 07:01:55;;;;;;;4.03;2.60;;;-7.10;99.90;;;;;;5074250;28;20194;-79
2024/01/21 07:04:20;;;;;;;3.97;2.73;;;-7.20;99.90;;;;;;5074218;28;20318;-79
2024/01/21 07:06:46;;;;;;;4.77;2.60;;;-7.20;99.90;;;;;;5073754;28;20167;-77
2024/01/21 07:09:12;;;;;;;6.07;3.07;;;-7.10;99.90;;;;;;5073590;28;20185;-77
2024/01/21 07:11:41;;;;;;;5.60;3.43;;;-7.10;99.90;;;;;;5073438;28;20170;-79
2024/01/21 07:14:07;;;;;;;3.77;2.40;;;-7.00;99.90;;;;;;5075712;28;20410;-80
2024/01/21 07:16:33;;;;;;;4.13;2.50;;;-7.00;99.90;;;;;;5074474;28;20779;-78
2024/01/21 07:18:58;;;;;;;4.83;3.30;;;-6.90;99.90;;;;;;5076140;28;20218;-78
2024/01/21 07:21:24;;;;;;;5.10;3.40;;;-6.80;99.90;;;;;;5075557;28;20260;-78
2024/01/21 07:23:49;;;;;;;6.30;3.60;;;-6.60;99.90;;;;;;5075465;28;20208;-78
2024/01/21 07:26:15;;;;;;;5.63;3.57;;;-6.50;99.90;;;;;;5073557;28;20213;-79
2024/01/21 07:28:40;;;;;;;9.17;4.47;;;-6.40;99.90;;;;;;5073478;28;20218;-79
2024/01/21 07:31:07;;;;;;;6.50;3.90;;;-6.20;99.90;;;;;;5073673;28;20173;-79
2024/01/21 07:33:33;;;;;;;6.70;4.13;;;-6.00;99.90;;;;;;5074704;28;20188;-77
2024/01/21 07:36:03;;;;;;;7.07;5.20;;;-5.90;99.90;;;;;;5073366;28;20426;-77
2024/01/21 07:38:29;;;;;;;8.67;4.83;;;-5.60;99.90;;;;;;5073044;28;20205;-78
2024/01/21 07:40:54;;;;;;;10.47;4.93;;;-5.40;99.90;;;;;;5073686;28;20411;-78
2024/01/21 07:43:20;;;;;;;9.17;5.10;;;-5.40;99.90;;;;;;5072710;28;20199;-78
2024/01/21 07:45:45;;;;;;;8.60;5.47;;;-5.30;99.90;;;;;;5074264;28;20172;-80
2024/01/21 07:48:11;;;;;;;10.60;5.30;;;-5.30;99.90;;;;;;5072617;28;20293;-77
2024/01/21 07:50:36;;;;;;;8.87;4.90;;;-5.30;99.90;;;;;;5072223;28;20172;-78
2024/01/21 07:53:02;;;;;;;10.20;5.77;;;-5.30;99.90;;;;;;5072662;28;20168;-77
2024/01/21 07:55:28;;;;;;;7.03;4.87;;;-5.30;99.90;;;;;;5072633;28;20175;-79
2024/01/21 07:57:53;;;;;;;8.67;4.73;;;-5.30;99.90;;;;;;5073793;28;20181;-77
2024/01/21 08:00:19;;;;;;;7.77;4.97;;;-5.20;99.90;;;;;;5073342;28;20207;-78
2024/01/21 08:02:44;;;;;;;9.30;4.70;;;-5.20;99.90;;;;;;5072474;28;20211;-79
2024/01/21 08:05:10;;;;;;;6.93;4.53;;;-5.20;99.90;;;;;;5072469;28;20216;-78
2024/01/21 08:07:36;;;;;;;6.03;4.10;;;-5.10;99.90;;;;;;5072484;28;20183;-78
2024/01/21 08:10:03;;;;;;;5.07;3.50;;;-5.00;99.90;;;;;;5072249;28;20204;-78
2024/01/21 08:12:28;;;;;;;6.57;2.60;;;-4.90;99.90;;;;;;5072326;28;20174;-78
2024/01/21 08:14:54;;;;;;;5.23;3.30;;;-4.50;99.90;;;;;;5072338;28;20414;-78
2024/01/21 08:17:20;;;;;;;4.43;3.00;;;-4.10;24.60;;;;;;5072310;28;20605;-78
2024/01/21 08:19:45;;;;;;;4.83;2.87;;;-3.90;1.00;;;;;;5073091;28;20688;-78
2024/01/21 08:22:11;;;;;;;4.13;2.63;;;-3.80;1.00;;;;;;5072896;28;20196;-78
2024/01/21 08:24:36;;;;;;;3.03;2.40;;;-3.70;1.00;;;;;;5073228;28;20165;-79
2024/01/21 08:27:02;;;;;;;3.83;2.70;;;-3.40;1.00;;;;;;5071835;28;20188;-78
2024/01/21 08:29:28;;;;;;;5.43;2.60;;;-3.30;1.00;;;;;;5071870;28;20282;-77
2024/01/21 08:31:59;;;;;;;3.63;2.33;;;-3.10;7.80;;;;;;5071664;28;20181;-78
2024/01/21 08:34:24;;;;;;;4.07;2.50;;;-2.90;1.00;;;;;;5073071;28;20169;-78
2024/01/21 08:36:50;;;;;;;5.03;2.60;;;-2.80;1.00;;;;;;5073115;28;20832;-78
2024/01/21 08:39:16;;;;;;;4.80;2.87;;;-2.70;1.00;;;;;;5072794;28;20189;-78
2024/01/21 08:41:41;;;;;;;4.23;3.00;;;-2.60;1.00;;;;;;5072430;28;20178;-78
2024/01/21 08:44:07;;;;;;;3.83;2.87;;;-2.50;1.00;;;;;;5073159;28;20209;-77
2024/01/21 08:46:33;;;;;;;3.27;2.80;;;-2.40;1.00;;;;;;5071868;28;20205;-77
2024/01/21 08:48:59;;;;;;;5.27;2.87;;;-2.30;1.00;;;;;;5072652;28;20292;-79
2024/01/21 08:51:25;;;;;;;3.07;2.47;;;-2.10;6.50;;;;;;5071134;28;20277;-77
2024/01/21 08:53:56;;;;;;;4.07;2.60;;;-2.00;1.00;;;;;;5071496;28;20177;-79
2024/01/21 08:56:24;;;;;;;4.17;2.73;;;-1.60;1.00;;;;;;5072579;28;20182;-78
2024/01/21 08:58:50;;;;;;;3.20;2.33;;;-1.30;1.00;;;;;;5072574;28;20207;-79
2024/01/21 09:01:16;;;;;;;3.57;2.60;;;-1.30;1.00;;;;;;5070912;28;20189;-79
2024/01/21 09:03:41;;;;;;;5.20;3.10;;;-1.20;99.90;;;;;;5072599;28;20207;-79
2024/01/21 09:06:07;;;;;;;4.50;3.03;;;-1.10;99.90;;;;;;5071232;28;20167;-77
2024/01/21 09:08:33;;;;;;;5.03;3.10;;;-1.10;99.90;;;;;;5071104;28;20200;-78
2024/01/21 09:10:58;;;;;;;5.53;3.13;;;-1.10;1.00;;;;;;5071964;28;20597;-77
2024/01/21 09:13:24;;;;;;;4.67;3.37;;;-1.10;1.00;;;;;;5071133;28;20175;-79
2024/01/21 09:15:49;;;;;;;4.67;3.40;;;-1.00;1.00;;;;;;5072400;28;20178;-78
2024/01/21 09:18:15;;;;;;;4.53;3.03;;;-0.90;99.90;;;;;;5071108;28;20188;-77
2024/01/21 09:20:40;;;;;;;5.40;3.30;;;-0.90;1.00;;;;;;5070631;28;20180;-77
2024/01/21 09:23:06;;;;;;;5.07;3.23;;;-0.80;99.90;;;;;;5071010;28;20202;-78
2024/01/21 09:25:31;;;;;;;4.80;3.33;;;-0.60;99.90;;;;;;5072233;28;20177;-77
2024/01/21 09:27:57;;;;;;;4.90;3.20;;;-0.40;99.90;;;;;;5071294;28;20561;-78
2024/01/21 09:30:22;;;;;;;5.27;3.47;;;-0.30;1.00;;;;;;5070466;28;20188;-78
2024/01/21 09:32:48;;;;;;;4.53;3.37;;;-0.20;1.00;;;;;;5072516;28;20675;-77
2024/01/21 09:35:13;;;;;;;5.13;3.30;;;-0.10;1.00;;;;;;5070882;28;20199;-78
2024/01/21 09:37:39;;;;;;;5.30;3.73;;;0.10;1.00;;;;;;5070778;28;20213;-78
2024/01/21 09:40:05;;;;;;;6.77;4.40;;;0.20;1.00;;;;;;5070828;28;20216;-78
2024/01/21 09:42:31;;;;;;;7.37;3.77;;;0.20;1.00;;;;;;5071672;28;20281;-79
2024/01/21 09:44:57;;;;;;;5.83;3.67;;;0.20;1.00;;;;;;5072655;28;20191;-79
2024/01/21 09:47:24;;;;;;;5.70;3.87;;;0.20;98.30;;;;;;5072232;28;20660;-79
2024/01/21 09:49:51;;;;;;;5.63;3.80;;;0.10;99.90;;;;;;5072455;28;20184;-78
2024/01/21 09:52:18;;;;;;;7.43;4.10;;;0.00;1.00;;;;;;5071623;28;20222;-78
2024/01/21 09:54:45;;;;;;;5.63;4.07;;;-0.10;99.90;;;;;;5073703;28;20191;-79
2024/01/21 09:57:12;;;;;;;6.83;4.10;;;-0.10;1.00;;;;;;5072600;28;20176;-81
2024/01/21 09:59:39;;;;;;;7.40;4.20;;;-0.20;1.00;;;;;;5072836;28;20208;-79
2024/01/21 10:02:13;;;;;;;7.20;4.23;;;-0.20;99.90;;;;;;5073603;28;20255;-79
2024/01/21 10:04:39;;;;;;;7.13;3.67;;;-0.30;99.90;;;;;;5073493;28;20214;-80
2024/01/21 10:07:05;;;;;;;6.93;4.43;;;-0.30;99.90;;;;;;5071749;28;20176;-80
2024/01/21 10:09:30;;;;;;;8.43;4.00;;;-0.30;99.90;;;;;;5071494;28;20185;-80
2024/01/21 10:11:57;;;;;;;6.37;4.33;;;-0.20;99.90;;;;;;5072891;28;20668;-79
2024/01/21 10:14:27;;;;;;;7.73;4.30;;;-0.10;99.90;;;;;;5073193;28;20176;-80
2024/01/21 10:16:54;;;;;;;8.83;4.50;;;0.10;99.90;;;;;;5072222;28;20184;-80
2024/01/21 10:19:31;;;;;;;6.37;4.43;;;0.20;19.10;;;;;;5071307;28;20193;-79
2024/01/21 10:22:06;;;;;;;7.33;4.93;;;0.30;1.00;;;;;;5071043;28;20184;-79
2024/01/21 10:24:31;;;;;;;7.27;4.63;;;0.30;1.00;;;;;;5071309;28;20173;-80
2024/01/21 10:26:57;;;;;;;6.27;4.27;;;0.30;1.00;;;;;;5073293;28;20181;-80
2024/01/21 10:29:22;;;;;;;6.87;4.60;;;0.20;99.90;;;;;;5072776;28;20288;-80
2024/01/21 10:31:48;;;;;;;5.40;4.17;;;0.20;1.00;;;;;;5071925;28;20183;-80
2024/01/21 10:34:14;;;;;;;7.70;5.10;;;0.30;99.90;;;;;;5071029;28;20173;-80
2024/01/21 10:36:43;;;;;;;10.47;5.10;;;0.40;99.90;;;;;;5072353;28;20169;-80
2024/01/21 10:39:16;;;;;;;7.27;4.97;;;0.40;99.90;;;;;;5071007;28;20203;-80
2024/01/21 10:41:43;;;;;;;8.20;5.23;;;0.40;99.90;;;;;;5070176;28;20169;-80
2024/01/21 10:44:09;;;;;;;7.93;5.00;;;0.60;99.90;;;;;;5071255;28;20255;-80
2024/01/21 10:46:37;;;;;;;8.50;5.47;;;0.50;99.90;;;;;;5072107;28;20173;-80
2024/01/21 10:49:03;;;;;;;8.53;5.90;;;0.50;1.00;;;;;;5071570;28;20199;-80
2024/01/21 10:51:30;;;;;;;8.37;5.50;;;0.40;1.00;;;;;;5072448;28;20558;-80
2024/01/21 10:53:59;;;;;;;8.33;5.70;;;0.10;1.00;;;;;;5072320;28;20270;-80
2024/01/21 10:56:26;;;;;;;7.90;5.87;;;-0.10;1.00;;;;;;5071015;28;20184;-82
2024/01/21 10:58:52;;;;;;;9.37;5.53;;;-0.20;71.40;;;;;;5071587;28;20259;-79
2024/01/21 11:01:19;;;;;;;8.37;5.60;;;-0.20;99.90;;;;;;5072377;28;20169;-80
2024/01/21 11:03:48;;;;;;;11.00;5.97;;;-0.30;99.90;;;;;;5071978;28;20208;-80
2024/01/21 11:06:16;;;;;;;10.03;5.90;;;-0.30;1.00;;;;;;5071815;28;20202;-80
2024/01/21 11:08:43;;;;;;;8.90;5.27;;;-0.30;1.00;;;;;;5073077;28;20192;-80
2024/01/21 11:11:09;;;;;;;7.53;4.87;;;-0.30;1.00;;;;;;5072300;28;20169;-80
2024/01/21 11:13:52;;;;;;;6.67;4.87;;;-0.20;10.30;;;;;;5074691;28;20181;-79
2024/01/21 11:16:30;;;;;;;9.53;5.50;;;0.10;1.00;;;;;;5076150;28;20176;-80
2024/01/21 11:19:07;;;;;;;9.47;5.13;;;0.20;1.00;;;;;;5074502;28;20287;-79
2024/01/21 11:21:41;;;;;;;7.83;5.20;;;0.10;1.00;;;;;;5074122;28;20172;-79
2024/01/21 11:24:09;;;;;;;8.30;4.60;;;0.00;1.00;;;;;;5075673;28;20204;-79
2024/01/21 11:26:38;;;;;;;7.67;5.43;;;-0.10;1.00;;;;;;5074720;28;20177;-80
2024/01/21 11:29:25;;;;;;;7.60;4.80;;;-0.10;1.00;;;;;;5074474;28;20216;-78
2024/01/21 11:32:05;;;;;;;7.83;5.30;;;-0.20;1.00;;;;;;5064487;28;20180;-79
2024/01/21 11:34:41;;;;;;;7.70;5.23;;;0.10;1.00;;;;;;5076106;28;20177;-79
2024/01/21 11:37:08;;;;;;;8.90;5.47;;;0.70;20.40;;;;;;5074620;28;20670;-79
2024/01/21 11:39:34;;;;;;;8.27;5.80;;;1.00;1.00;;;;;;5075554;28;20181;-81
2024/01/21 11:42:01;;;;;;;9.93;5.97;;;0.70;1.00;;;;;;5075382;28;20169;-81
2024/01/21 11:44:28;;;;;;;7.70;5.23;;;0.30;99.90;;;;;;5074833;28;20185;-81
2024/01/21 11:47:01;;;;;;;9.63;6.17;;;0.20;99.90;;;;;;5076070;28;20191;-79
2024/01/21 11:49:27;;;;;;;9.97;5.50;;;0.10;1.00;;;;;;5074112;28;20189;-80
2024/01/21 11:51:53;;;;;;;9.40;6.03;;;0.00;99.90;;;;;;5073977;28;20202;-79
2024/01/21 11:54:21;;;;;;;8.97;6.00;;;0.00;1.00;;;;;;5074184;28;20649;-80
2024/01/21 11:56:47;;;;;;;8.60;5.50;;;-0.10;96.60;;;;;;5075191;28;20598;-80
2024/01/21 11:59:14;;;;;;;9.47;6.43;;;-0.10;1.00;;;;;;5075308;28;20712;-80
2024/01/21 12:01:41;;;;;;;8.00;5.27;;;-0.10;99.90;;;;;;5073532;28;20189;-80
2024/01/21 12:04:09;;;;;;;9.93;6.07;;;0.00;1.00;;;;;;5074697;28;20176;-80
2024/01/21 12:06:40;;;;;;;11.10;5.73;;;0.40;1.00;;;;;;5074509;28;20223;-81
2024/01/21 12:09:07;;;;;;;10.83;5.00;;;0.80;1.00;;;;;;5075902;28;20220;-80
2024/01/21 12:11:37;;;;;;;7.07;4.90;;;1.00;99.90;;;;;;5073926;28;20203;-81
2024/01/21 12:14:08;;;;;;;8.63;5.60;;;1.10;99.90;;;;;;5075965;28;20625;-80
2024/01/21 12:16:34;;;;;;;11.20;6.00;;;1.10;1.00;;;;;;5073543;28;20196;-80
2024/01/21 12:19:01;;;;;;;10.27;5.93;;;1.90;1.00;;;;;;5073420;28;20185;-80
2024/01/21 12:21:28;;;;;;;7.97;5.67;;;1.80;1.00;;;;;;5073798;28;20657;-80
2024/01/21 12:23:54;;;;;;;7.77;5.13;;;1.40;1.00;;;;;;5074285;28;20280;-80
2024/01/21 12:26:21;;;;;;;7.70;5.47;;;1.10;1.00;;;;;;5073894;28;20250;-79
2024/01/21 12:28:58;;;;;;;8.83;6.00;;;1.30;44.10;;;;;;5073572;28;20193;-81
2024/01/21 12:31:35;;;;;;;8.73;5.73;;;1.50;8.20;;;;;;5072532;28;20174;-80
2024/01/21 12:34:03;;;;;;;7.13;5.17;;;2.20;1.00;;;;;;5074044;28;20176;-80
2024/01/21 12:36:36;;;;;;;8.53;4.97;;;2.10;67.30;;;;;;5073162;28;20227;-80
2024/01/21 12:39:04;;;;;;;9.63;5.17;;;2.50;99.90;;;;;;5072530;28;20191;-80
2024/01/21 12:41:30;;;;;;;9.17;5.67;;;2.60;1.00;;;;;;5073499;28;20176;-81
2024/01/21 12:43:56;;;;;;;8.67;5.70;;;2.40;1.00;;;;;;5072838;28;20585;-80
2024/01/21 12:46:22;;;;;;;8.13;5.47;;;2.30;1.00;;;;;;5074139;28;20274;-79